Flugplatz Damme

Für EDWC sind keine METAR/TAF Berichte vorhanden.
Es werden die Flugwettermeldungen vom Flugplatz Diepholz Airport in 15 km Entfernung angezeigt.

Prognose für ETND

vom 07.12. um 11:00 UTC

Zwischen 12:00 UTC und 21:00 UTC

Wind 5 kt aus 210°

Sichtweite 9000 m

keine signifikanten Wettererscheinungen

aufgebrochene Bewölkung in 1000 ft


Zwischen 12:00 und 14:00 UTC übergehend zu

Wind 5 kt aus 230°

Sichtweite 10 km oder mehr

keine signifikanten Wettererscheinungen

aufgebrochene Bewölkung in 3000 ft

TAF ETND 071100Z 0712/0721 21005KT 9000 NSW BKN010 BECMG 0712/0714 23005KT 9999 NSW BKN030 BY ETGL
Impressum